sensor_id;sensor_type;location;lat;lon;timestamp;P1;durP1;ratioP1;P2;durP2;ratioP2
27187;SDS011;14708;50.872;5.306;2023-07-09T00:02:37;5.78;;;4.45;;
27187;SDS011;14708;50.872;5.306;2023-07-09T00:08:45;5.55;;;4.68;;
27187;SDS011;14708;50.872;5.306;2023-07-09T00:12:07;4.55;;;3.95;;
27187;SDS011;14708;50.872;5.306;2023-07-09T03:35:00;4.00;;;3.60;;
27187;SDS011;14708;50.872;5.306;2023-07-09T03:37:57;4.40;;;4.00;;
27187;SDS011;14708;50.872;5.306;2023-07-09T03:41:06;5.60;;;4.00;;
27187;SDS011;14708;50.872;5.306;2023-07-09T03:57:32;5.45;;;4.28;;
27187;SDS011;14708;50.872;5.306;2023-07-09T04:07:31;4.00;;;3.60;;
27187;SDS011;14708;50.872;5.306;2023-07-09T04:23:09;4.63;;;4.03;;
27187;SDS011;14708;50.872;5.306;2023-07-09T04:26:29;4.43;;;4.00;;
27187;SDS011;14708;50.872;5.306;2023-07-09T05:34:33;3.97;;;3.53;;
27187;SDS011;14708;50.872;5.306;2023-07-09T06:18:49;5.68;;;3.35;;
27187;SDS011;14708;50.872;5.306;2023-07-09T06:21:15;4.60;;;3.70;;
27187;SDS011;14708;50.872;5.306;2023-07-09T06:23:40;5.18;;;3.67;;
27187;SDS011;14708;50.872;5.306;2023-07-09T06:26:06;4.80;;;3.85;;
27187;SDS011;14708;50.872;5.306;2023-07-09T06:28:32;5.80;;;3.88;;
27187;SDS011;14708;50.872;5.306;2023-07-09T06:30:58;7.75;;;4.13;;
27187;SDS011;14708;50.872;5.306;2023-07-09T06:33:24;7.72;;;4.20;;
27187;SDS011;14708;50.872;5.306;2023-07-09T06:35:51;6.85;;;4.18;;
27187;SDS011;14708;50.872;5.306;2023-07-09T06:38:19;7.85;;;4.15;;
27187;SDS011;14708;50.872;5.306;2023-07-09T06:40:45;9.05;;;4.68;;
27187;SDS011;14708;50.872;5.306;2023-07-09T06:43:11;6.05;;;3.85;;
27187;SDS011;14708;50.872;5.306;2023-07-09T06:45:37;5.95;;;4.30;;
27187;SDS011;14708;50.872;5.306;2023-07-09T06:48:03;6.80;;;4.28;;
27187;SDS011;14708;50.872;5.306;2023-07-09T06:50:32;11.23;;;4.80;;
27187;SDS011;14708;50.872;5.306;2023-07-09T06:52:58;10.52;;;5.03;;
27187;SDS011;14708;50.872;5.306;2023-07-09T06:55:24;6.97;;;4.38;;
27187;SDS011;14708;50.872;5.306;2023-07-09T06:57:50;7.93;;;4.50;;
27187;SDS011;14708;50.872;5.306;2023-07-09T07:00:16;9.25;;;5.22;;
27187;SDS011;14708;50.872;5.306;2023-07-09T07:02:41;10.35;;;4.93;;
27187;SDS011;14708;50.872;5.306;2023-07-09T07:05:07;6.78;;;4.40;;
27187;SDS011;14708;50.872;5.306;2023-07-09T07:07:33;5.93;;;4.25;;
27187;SDS011;14708;50.872;5.306;2023-07-09T07:09:59;8.25;;;4.60;;
27187;SDS011;14708;50.872;5.306;2023-07-09T07:12:26;8.48;;;5.38;;
27187;SDS011;14708;50.872;5.306;2023-07-09T07:14:53;7.28;;;4.80;;
27187;SDS011;14708;50.872;5.306;2023-07-09T07:17:20;22.65;;;7.47;;
27187;SDS011;14708;50.872;5.306;2023-07-09T07:19:46;66.65;;;13.88;;
27187;SDS011;14708;50.872;5.306;2023-07-09T07:22:12;99.38;;;22.48;;
27187;SDS011;14708;50.872;5.306;2023-07-09T07:24:38;151.48;;;35.00;;
27187;SDS011;14708;50.872;5.306;2023-07-09T07:27:04;157.98;;;36.75;;
27187;SDS011;14708;50.872;5.306;2023-07-09T07:29:30;170.38;;;41.72;;
27187;SDS011;14708;50.872;5.306;2023-07-09T07:31:55;161.40;;;38.13;;
27187;SDS011;14708;50.872;5.306;2023-07-09T07:34:22;171.45;;;41.67;;
27187;SDS011;14708;50.872;5.306;2023-07-09T07:36:49;151.43;;;39.38;;
27187;SDS011;14708;50.872;5.306;2023-07-09T07:39:15;174.13;;;42.60;;
27187;SDS011;14708;50.872;5.306;2023-07-09T07:41:40;151.48;;;40.17;;
27187;SDS011;14708;50.872;5.306;2023-07-09T07:44:11;132.48;;;37.60;;
27187;SDS011;14708;50.872;5.306;2023-07-09T07:46:37;156.68;;;39.42;;
27187;SDS011;14708;50.872;5.306;2023-07-09T07:49:03;147.98;;;39.55;;
27187;SDS011;14708;50.872;5.306;2023-07-09T07:51:29;148.25;;;40.65;;
27187;SDS011;14708;50.872;5.306;2023-07-09T07:53:55;145.38;;;39.97;;
27187;SDS011;14708;50.872;5.306;2023-07-09T07:56:21;125.40;;;39.15;;
27187;SDS011;14708;50.872;5.306;2023-07-09T07:58:47;112.38;;;36.95;;
27187;SDS011;14708;50.872;5.306;2023-07-09T08:01:12;119.53;;;36.38;;
27187;SDS011;14708;50.872;5.306;2023-07-09T08:03:38;114.72;;;35.25;;
27187;SDS011;14708;50.872;5.306;2023-07-09T08:06:03;112.38;;;32.83;;
27187;SDS011;14708;50.872;5.306;2023-07-09T08:08:29;116.28;;;34.55;;
27187;SDS011;14708;50.872;5.306;2023-07-09T08:11:05;112.30;;;34.10;;
27187;SDS011;14708;50.872;5.306;2023-07-09T08:13:33;117.30;;;35.15;;
27187;SDS011;14708;50.872;5.306;2023-07-09T08:15:59;93.28;;;32.17;;
27187;SDS011;14708;50.872;5.306;2023-07-09T08:18:25;89.03;;;30.63;;
27187;SDS011;14708;50.872;5.306;2023-07-09T08:20:51;99.13;;;30.67;;
27187;SDS011;14708;50.872;5.306;2023-07-09T08:23:17;85.50;;;30.88;;
27187;SDS011;14708;50.872;5.306;2023-07-09T08:25:42;83.70;;;29.30;;
27187;SDS011;14708;50.872;5.306;2023-07-09T08:28:08;86.15;;;27.73;;
27187;SDS011;14708;50.872;5.306;2023-07-09T08:30:34;79.75;;;26.08;;
27187;SDS011;14708;50.872;5.306;2023-07-09T08:33:00;72.70;;;26.52;;
27187;SDS011;14708;50.872;5.306;2023-07-09T08:35:26;76.38;;;26.77;;
27187;SDS011;14708;50.872;5.306;2023-07-09T08:37:52;69.95;;;23.75;;
27187;SDS011;14708;50.872;5.306;2023-07-09T08:40:17;64.72;;;23.65;;
27187;SDS011;14708;50.872;5.306;2023-07-09T08:42:45;60.78;;;22.90;;
27187;SDS011;14708;50.872;5.306;2023-07-09T08:45:36;58.42;;;20.40;;
27187;SDS011;14708;50.872;5.306;2023-07-09T08:48:31;56.83;;;21.48;;
27187;SDS011;14708;50.872;5.306;2023-07-09T08:50:59;60.15;;;21.45;;
27187;SDS011;14708;50.872;5.306;2023-07-09T08:53:35;56.33;;;20.40;;
27187;SDS011;14708;50.872;5.306;2023-07-09T08:56:04;51.83;;;19.45;;
27187;SDS011;14708;50.872;5.306;2023-07-09T08:58:34;45.70;;;18.55;;
27187;SDS011;14708;50.872;5.306;2023-07-09T09:01:03;42.42;;;19.02;;
27187;SDS011;14708;50.872;5.306;2023-07-09T09:03:35;45.55;;;18.48;;
27187;SDS011;14708;50.872;5.306;2023-07-09T09:06:10;42.90;;;19.15;;
27187;SDS011;14708;50.872;5.306;2023-07-09T09:08:43;52.03;;;17.20;;
27187;SDS011;14708;50.872;5.306;2023-07-09T09:13:49;127.60;;;45.83;;
27187;SDS011;14708;50.872;5.306;2023-07-09T09:16:21;111.93;;;38.97;;
27187;SDS011;14708;50.872;5.306;2023-07-09T09:18:52;95.03;;;35.85;;
27187;SDS011;14708;50.872;5.306;2023-07-09T09:21:40;116.55;;;41.50;;
27187;SDS011;14708;50.872;5.306;2023-07-09T09:24:17;85.90;;;32.88;;
27187;SDS011;14708;50.872;5.306;2023-07-09T09:26:48;80.78;;;32.13;;
27187;SDS011;14708;50.872;5.306;2023-07-09T09:29:17;71.55;;;30.55;;
27187;SDS011;14708;50.872;5.306;2023-07-09T09:31:44;76.65;;;28.27;;
27187;SDS011;14708;50.872;5.306;2023-07-09T09:34:19;65.50;;;24.92;;
27187;SDS011;14708;50.872;5.306;2023-07-09T09:36:46;60.50;;;25.15;;
27187;SDS011;14708;50.872;5.306;2023-07-09T09:39:12;72.38;;;26.52;;
27187;SDS011;14708;50.872;5.306;2023-07-09T09:41:38;58.90;;;24.65;;
27187;SDS011;14708;50.872;5.306;2023-07-09T09:44:05;55.25;;;24.20;;
27187;SDS011;14708;50.872;5.306;2023-07-09T09:46:31;62.42;;;23.55;;
27187;SDS011;14708;50.872;5.306;2023-07-09T09:49:01;55.85;;;21.45;;
27187;SDS011;14708;50.872;5.306;2023-07-09T09:51:28;52.80;;;21.08;;
27187;SDS011;14708;50.872;5.306;2023-07-09T09:53:58;51.40;;;21.90;;
27187;SDS011;14708;50.872;5.306;2023-07-09T09:56:33;48.17;;;19.38;;
27187;SDS011;14708;50.872;5.306;2023-07-09T09:59:02;48.25;;;19.73;;
27187;SDS011;14708;50.872;5.306;2023-07-09T10:01:30;52.13;;;19.67;;
27187;SDS011;14708;50.872;5.306;2023-07-09T10:03:57;48.22;;;21.48;;
27187;SDS011;14708;50.872;5.306;2023-07-09T10:06:31;48.90;;;20.27;;
27187;SDS011;14708;50.872;5.306;2023-07-09T10:11:48;43.38;;;19.20;;
27187;SDS011;14708;50.872;5.306;2023-07-09T10:14:25;46.00;;;18.13;;
27187;SDS011;14708;50.872;5.306;2023-07-09T10:16:58;41.95;;;18.75;;
27187;SDS011;14708;50.872;5.306;2023-07-09T10:19:48;36.85;;;17.45;;
27187;SDS011;14708;50.872;5.306;2023-07-09T10:33:22;34.33;;;16.80;;
27187;SDS011;14708;50.872;5.306;2023-07-09T10:36:39;39.22;;;16.60;;
27187;SDS011;14708;50.872;5.306;2023-07-09T10:38:52;34.38;;;15.50;;
27187;SDS011;14708;50.872;5.306;2023-07-09T10:41:40;33.10;;;16.40;;
27187;SDS011;14708;50.872;5.306;2023-07-09T10:46:40;32.75;;;15.05;;
27187;SDS011;14708;50.872;5.306;2023-07-09T10:49:10;31.98;;;16.17;;
27187;SDS011;14708;50.872;5.306;2023-07-09T10:51:39;30.30;;;15.65;;
27187;SDS011;14708;50.872;5.306;2023-07-09T10:59:48;36.47;;;16.13;;
27187;SDS011;14708;50.872;5.306;2023-07-09T11:04:47;31.38;;;14.80;;
27187;SDS011;14708;50.872;5.306;2023-07-09T11:07:27;32.63;;;15.15;;
27187;SDS011;14708;50.872;5.306;2023-07-09T11:10:02;34.55;;;14.15;;
27187;SDS011;14708;50.872;5.306;2023-07-09T11:12:39;39.30;;;14.95;;
27187;SDS011;14708;50.872;5.306;2023-07-09T11:15:15;35.13;;;14.98;;
27187;SDS011;14708;50.872;5.306;2023-07-09T11:17:44;31.13;;;14.85;;
27187;SDS011;14708;50.872;5.306;2023-07-09T11:20:19;32.42;;;14.43;;
27187;SDS011;14708;50.872;5.306;2023-07-09T11:23:43;29.85;;;13.77;;
27187;SDS011;14708;50.872;5.306;2023-07-09T11:25:59;28.08;;;14.30;;
27187;SDS011;14708;50.872;5.306;2023-07-09T11:28:34;28.17;;;13.82;;
27187;SDS011;14708;50.872;5.306;2023-07-09T11:31:05;28.42;;;13.70;;
27187;SDS011;14708;50.872;5.306;2023-07-09T11:34:02;29.88;;;12.95;;
27187;SDS011;14708;50.872;5.306;2023-07-09T11:36:33;35.50;;;14.70;;
27187;SDS011;14708;50.872;5.306;2023-07-09T11:39:27;25.35;;;12.77;;
27187;SDS011;14708;50.872;5.306;2023-07-09T11:45:52;31.00;;;13.50;;
27187;SDS011;14708;50.872;5.306;2023-07-09T11:48:27;26.15;;;12.75;;
27187;SDS011;14708;50.872;5.306;2023-07-09T11:50:59;24.83;;;12.90;;
27187;SDS011;14708;50.872;5.306;2023-07-09T11:53:43;24.67;;;12.07;;
27187;SDS011;14708;50.872;5.306;2023-07-09T11:59:19;19.95;;;11.98;;
27187;SDS011;14708;50.872;5.306;2023-07-09T12:04:44;23.30;;;12.57;;
27187;SDS011;14708;50.872;5.306;2023-07-09T12:07:16;21.40;;;11.43;;
27187;SDS011;14708;50.872;5.306;2023-07-09T12:09:48;19.20;;;11.23;;
27187;SDS011;14708;50.872;5.306;2023-07-09T12:12:25;21.70;;;11.93;;
27187;SDS011;14708;50.872;5.306;2023-07-09T12:14:52;23.25;;;11.95;;
27187;SDS011;14708;50.872;5.306;2023-07-09T12:17:22;27.55;;;11.77;;
27187;SDS011;14708;50.872;5.306;2023-07-09T12:19:52;27.15;;;12.40;;
27187;SDS011;14708;50.872;5.306;2023-07-09T12:25:19;23.25;;;11.30;;
27187;SDS011;14708;50.872;5.306;2023-07-09T12:27:51;21.45;;;11.55;;
27187;SDS011;14708;50.872;5.306;2023-07-09T12:30:22;21.98;;;10.68;;
27187;SDS011;14708;50.872;5.306;2023-07-09T12:32:49;19.05;;;10.70;;
27187;SDS011;14708;50.872;5.306;2023-07-09T12:35:17;21.45;;;11.05;;
27187;SDS011;14708;50.872;5.306;2023-07-09T12:37:44;19.65;;;10.45;;
27187;SDS011;14708;50.872;5.306;2023-07-09T12:43:54;20.65;;;10.45;;
27187;SDS011;14708;50.872;5.306;2023-07-09T12:46:50;18.08;;;9.48;;
27187;SDS011;14708;50.872;5.306;2023-07-09T12:49:25;21.23;;;10.52;;
27187;SDS011;14708;50.872;5.306;2023-07-09T12:52:00;17.83;;;9.35;;
27187;SDS011;14708;50.872;5.306;2023-07-09T12:54:53;18.63;;;9.85;;
27187;SDS011;14708;50.872;5.306;2023-07-09T12:57:27;15.50;;;9.18;;
27187;SDS011;14708;50.872;5.306;2023-07-09T12:59:54;16.23;;;9.32;;
27187;SDS011;14708;50.872;5.306;2023-07-09T13:02:27;18.88;;;9.32;;
27187;SDS011;14708;50.872;5.306;2023-07-09T13:05:01;17.33;;;9.13;;
27187;SDS011;14708;50.872;5.306;2023-07-09T13:07:38;16.77;;;8.83;;
27187;SDS011;14708;50.872;5.306;2023-07-09T13:10:19;18.35;;;9.40;;
27187;SDS011;14708;50.872;5.306;2023-07-09T13:12:55;16.27;;;10.02;;
27187;SDS011;14708;50.872;5.306;2023-07-09T13:15:40;15.18;;;9.07;;
27187;SDS011;14708;50.872;5.306;2023-07-09T13:18:08;15.50;;;9.05;;
27187;SDS011;14708;50.872;5.306;2023-07-09T13:20:41;17.83;;;9.95;;
27187;SDS011;14708;50.872;5.306;2023-07-09T13:25:40;17.55;;;8.63;;
27187;SDS011;14708;50.872;5.306;2023-07-09T13:28:12;24.23;;;8.50;;
27187;SDS011;14708;50.872;5.306;2023-07-09T13:30:50;15.45;;;8.10;;
27187;SDS011;14708;50.872;5.306;2023-07-09T13:33:42;20.77;;;9.95;;
27187;SDS011;14708;50.872;5.306;2023-07-09T13:36:21;15.68;;;8.23;;
27187;SDS011;14708;50.872;5.306;2023-07-09T13:38:53;17.60;;;8.65;;
27187;SDS011;14708;50.872;5.306;2023-07-09T13:41:19;17.23;;;8.65;;
27187;SDS011;14708;50.872;5.306;2023-07-09T13:46:16;13.70;;;6.88;;
27187;SDS011;14708;50.872;5.306;2023-07-09T13:55:39;13.90;;;7.82;;
27187;SDS011;14708;50.872;5.306;2023-07-09T14:01:23;13.40;;;7.70;;
27187;SDS011;14708;50.872;5.306;2023-07-09T14:03:58;12.82;;;7.35;;
27187;SDS011;14708;50.872;5.306;2023-07-09T14:09:33;12.57;;;7.72;;
27187;SDS011;14708;50.872;5.306;2023-07-09T14:12:17;18.90;;;7.57;;
27187;SDS011;14708;50.872;5.306;2023-07-09T14:17:24;12.52;;;6.78;;
27187;SDS011;14708;50.872;5.306;2023-07-09T14:33:22;12.32;;;6.60;;
27187;SDS011;14708;50.872;5.306;2023-07-09T14:59:19;10.18;;;5.97;;
27187;SDS011;14708;50.872;5.306;2023-07-09T15:01:45;15.60;;;6.93;;
27187;SDS011;14708;50.872;5.306;2023-07-09T15:07:19;15.02;;;6.38;;
27187;SDS011;14708;50.872;5.306;2023-07-09T15:09:44;19.80;;;6.07;;
27187;SDS011;14708;50.872;5.306;2023-07-09T15:25:49;16.55;;;7.03;;
27187;SDS011;14708;50.872;5.306;2023-07-09T15:28:44;16.73;;;6.93;;
27187;SDS011;14708;50.872;5.306;2023-07-09T15:31:38;19.30;;;7.63;;
27187;SDS011;14708;50.872;5.306;2023-07-09T15:34:28;22.52;;;7.88;;
27187;SDS011;14708;50.872;5.306;2023-07-09T15:37:41;16.17;;;7.45;;
27187;SDS011;14708;50.872;5.306;2023-07-09T15:42:47;14.30;;;7.10;;
27187;SDS011;14708;50.872;5.306;2023-07-09T15:45:17;15.00;;;6.85;;
27187;SDS011;14708;50.872;5.306;2023-07-09T15:47:47;18.75;;;7.07;;
27187;SDS011;14708;50.872;5.306;2023-07-09T15:50:22;13.23;;;6.82;;
27187;SDS011;14708;50.872;5.306;2023-07-09T15:52:50;13.95;;;6.07;;
27187;SDS011;14708;50.872;5.306;2023-07-09T15:55:20;13.57;;;6.28;;
27187;SDS011;14708;50.872;5.306;2023-07-09T15:57:48;13.82;;;6.18;;
27187;SDS011;14708;50.872;5.306;2023-07-09T16:00:16;10.73;;;6.17;;
27187;SDS011;14708;50.872;5.306;2023-07-09T16:02:47;14.77;;;6.40;;
27187;SDS011;14708;50.872;5.306;2023-07-09T16:05:18;11.07;;;6.63;;
27187;SDS011;14708;50.872;5.306;2023-07-09T16:07:46;12.55;;;6.22;;
27187;SDS011;14708;50.872;5.306;2023-07-09T16:10:12;8.25;;;5.35;;
27187;SDS011;14708;50.872;5.306;2023-07-09T16:12:38;11.13;;;5.45;;
27187;SDS011;14708;50.872;5.306;2023-07-09T16:15:13;10.27;;;4.97;;
27187;SDS011;14708;50.872;5.306;2023-07-09T16:17:47;18.58;;;6.57;;
27187;SDS011;14708;50.872;5.306;2023-07-09T16:20:17;11.65;;;5.78;;
27187;SDS011;14708;50.872;5.306;2023-07-09T16:23:01;10.75;;;5.28;;
27187;SDS011;14708;50.872;5.306;2023-07-09T16:25:36;15.27;;;5.10;;
27187;SDS011;14708;50.872;5.306;2023-07-09T16:28:02;18.45;;;5.50;;
27187;SDS011;14708;50.872;5.306;2023-07-09T16:30:29;8.40;;;4.80;;
27187;SDS011;14708;50.872;5.306;2023-07-09T16:32:56;14.90;;;5.57;;
27187;SDS011;14708;50.872;5.306;2023-07-09T16:35:23;12.48;;;5.15;;
27187;SDS011;14708;50.872;5.306;2023-07-09T16:37:51;11.20;;;4.82;;
27187;SDS011;14708;50.872;5.306;2023-07-09T16:42:53;9.63;;;5.00;;
27187;SDS011;14708;50.872;5.306;2023-07-09T16:45:20;10.23;;;5.03;;
27187;SDS011;14708;50.872;5.306;2023-07-09T16:47:49;8.07;;;4.55;;
27187;SDS011;14708;50.872;5.306;2023-07-09T16:50:22;8.10;;;4.63;;
27187;SDS011;14708;50.872;5.306;2023-07-09T16:52:50;9.18;;;4.78;;
27187;SDS011;14708;50.872;5.306;2023-07-09T16:55:22;13.10;;;4.85;;
27187;SDS011;14708;50.872;5.306;2023-07-09T16:57:55;12.05;;;5.30;;
27187;SDS011;14708;50.872;5.306;2023-07-09T17:00:30;9.23;;;4.70;;
27187;SDS011;14708;50.872;5.306;2023-07-09T17:03:02;14.52;;;5.28;;
27187;SDS011;14708;50.872;5.306;2023-07-09T17:05:29;8.85;;;5.07;;
27187;SDS011;14708;50.872;5.306;2023-07-09T17:07:54;6.72;;;3.88;;
27187;SDS011;14708;50.872;5.306;2023-07-09T17:10:20;16.02;;;4.90;;
27187;SDS011;14708;50.872;5.306;2023-07-09T17:12:48;9.13;;;4.93;;
27187;SDS011;14708;50.872;5.306;2023-07-09T17:15:22;11.85;;;5.20;;
27187;SDS011;14708;50.872;5.306;2023-07-09T17:17:55;12.38;;;5.38;;
27187;SDS011;14708;50.872;5.306;2023-07-09T17:20:21;8.30;;;4.55;;
27187;SDS011;14708;50.872;5.306;2023-07-09T17:22:49;10.60;;;5.07;;
27187;SDS011;14708;50.872;5.306;2023-07-09T17:25:26;12.00;;;4.60;;
27187;SDS011;14708;50.872;5.306;2023-07-09T17:28:00;6.60;;;4.78;;
27187;SDS011;14708;50.872;5.306;2023-07-09T17:30:28;5.93;;;4.43;;
27187;SDS011;14708;50.872;5.306;2023-07-09T17:32:54;11.07;;;4.68;;
27187;SDS011;14708;50.872;5.306;2023-07-09T17:35:20;11.10;;;5.25;;
27187;SDS011;14708;50.872;5.306;2023-07-09T17:37:50;10.10;;;5.07;;
27187;SDS011;14708;50.872;5.306;2023-07-09T17:40:19;9.30;;;4.88;;
27187;SDS011;14708;50.872;5.306;2023-07-09T17:42:50;13.13;;;4.70;;
27187;SDS011;14708;50.872;5.306;2023-07-09T17:45:16;13.63;;;4.88;;
27187;SDS011;14708;50.872;5.306;2023-07-09T17:47:42;11.45;;;4.35;;
27187;SDS011;14708;50.872;5.306;2023-07-09T17:50:15;12.85;;;5.13;;
27187;SDS011;14708;50.872;5.306;2023-07-09T17:52:45;9.48;;;4.72;;
27187;SDS011;14708;50.872;5.306;2023-07-09T17:55:11;9.07;;;5.07;;
27187;SDS011;14708;50.872;5.306;2023-07-09T17:57:38;10.63;;;4.63;;
27187;SDS011;14708;50.872;5.306;2023-07-09T18:00:06;8.55;;;5.00;;
27187;SDS011;14708;50.872;5.306;2023-07-09T18:02:39;8.57;;;4.82;;
27187;SDS011;14708;50.872;5.306;2023-07-09T18:05:18;9.07;;;5.00;;
27187;SDS011;14708;50.872;5.306;2023-07-09T18:07:50;10.43;;;4.97;;
27187;SDS011;14708;50.872;5.306;2023-07-09T18:10:16;8.30;;;5.00;;
27187;SDS011;14708;50.872;5.306;2023-07-09T18:12:41;7.53;;;4.70;;
27187;SDS011;14708;50.872;5.306;2023-07-09T18:15:08;7.57;;;4.47;;
27187;SDS011;14708;50.872;5.306;2023-07-09T18:17:39;8.52;;;4.07;;
27187;SDS011;14708;50.872;5.306;2023-07-09T18:20:06;8.35;;;4.75;;
27187;SDS011;14708;50.872;5.306;2023-07-09T18:22:39;11.05;;;4.50;;
27187;SDS011;14708;50.872;5.306;2023-07-09T18:25:04;8.40;;;4.60;;
27187;SDS011;14708;50.872;5.306;2023-07-09T18:27:32;8.48;;;4.60;;
27187;SDS011;14708;50.872;5.306;2023-07-09T18:30:01;5.40;;;4.22;;
27187;SDS011;14708;50.872;5.306;2023-07-09T18:32:27;7.45;;;4.13;;
27187;SDS011;14708;50.872;5.306;2023-07-09T18:34:54;7.90;;;4.43;;
27187;SDS011;14708;50.872;5.306;2023-07-09T18:37:21;5.17;;;3.27;;
27187;SDS011;14708;50.872;5.306;2023-07-09T18:39:47;7.97;;;4.15;;
27187;SDS011;14708;50.872;5.306;2023-07-09T18:42:15;6.75;;;3.90;;
27187;SDS011;14708;50.872;5.306;2023-07-09T18:44:42;10.80;;;3.92;;
27187;SDS011;14708;50.872;5.306;2023-07-09T18:47:09;6.35;;;4.05;;
27187;SDS011;14708;50.872;5.306;2023-07-09T18:49:35;6.90;;;4.03;;
27187;SDS011;14708;50.872;5.306;2023-07-09T18:52:01;8.35;;;4.35;;
27187;SDS011;14708;50.872;5.306;2023-07-09T18:54:27;8.80;;;4.82;;
27187;SDS011;14708;50.872;5.306;2023-07-09T18:56:53;9.15;;;4.15;;
27187;SDS011;14708;50.872;5.306;2023-07-09T18:59:20;6.68;;;3.20;;
27187;SDS011;14708;50.872;5.306;2023-07-09T19:01:48;12.25;;;4.05;;
27187;SDS011;14708;50.872;5.306;2023-07-09T19:04:15;7.93;;;4.22;;
27187;SDS011;14708;50.872;5.306;2023-07-09T19:06:48;8.05;;;3.85;;
27187;SDS011;14708;50.872;5.306;2023-07-09T19:09:15;6.68;;;4.13;;
27187;SDS011;14708;50.872;5.306;2023-07-09T19:11:42;4.93;;;3.80;;
27187;SDS011;14708;50.872;5.306;2023-07-09T19:14:08;7.55;;;4.15;;
27187;SDS011;14708;50.872;5.306;2023-07-09T19:16:34;6.25;;;3.95;;
27187;SDS011;14708;50.872;5.306;2023-07-09T19:19:00;7.85;;;4.38;;
27187;SDS011;14708;50.872;5.306;2023-07-09T19:21:26;6.40;;;3.90;;
27187;SDS011;14708;50.872;5.306;2023-07-09T19:23:55;6.60;;;4.03;;
27187;SDS011;14708;50.872;5.306;2023-07-09T19:26:24;5.95;;;3.95;;
27187;SDS011;14708;50.872;5.306;2023-07-09T19:28:50;6.65;;;3.72;;
27187;SDS011;14708;50.872;5.306;2023-07-09T19:31:16;5.45;;;3.72;;
27187;SDS011;14708;50.872;5.306;2023-07-09T19:33:44;5.35;;;4.35;;
27187;SDS011;14708;50.872;5.306;2023-07-09T19:36:19;6.75;;;4.38;;
27187;SDS011;14708;50.872;5.306;2023-07-09T19:38:47;5.60;;;3.92;;
27187;SDS011;14708;50.872;5.306;2023-07-09T19:41:14;8.05;;;4.15;;
27187;SDS011;14708;50.872;5.306;2023-07-09T19:43:40;9.85;;;3.90;;
27187;SDS011;14708;50.872;5.306;2023-07-09T19:46:07;6.20;;;3.97;;
27187;SDS011;14708;50.872;5.306;2023-07-09T19:48:41;6.70;;;4.20;;
27187;SDS011;14708;50.872;5.306;2023-07-09T19:51:07;5.72;;;4.15;;
27187;SDS011;14708;50.872;5.306;2023-07-09T19:53:33;4.78;;;3.33;;
27187;SDS011;14708;50.872;5.306;2023-07-09T19:55:59;5.53;;;3.90;;
27187;SDS011;14708;50.872;5.306;2023-07-09T19:58:25;5.53;;;4.20;;
27187;SDS011;14708;50.872;5.306;2023-07-09T20:00:50;5.78;;;4.10;;
27187;SDS011;14708;50.872;5.306;2023-07-09T20:05:48;7.63;;;4.30;;
27187;SDS011;14708;50.872;5.306;2023-07-09T20:08:14;5.07;;;4.15;;
27187;SDS011;14708;50.872;5.306;2023-07-09T20:10:41;6.32;;;3.92;;
27187;SDS011;14708;50.872;5.306;2023-07-09T20:13:10;6.75;;;4.32;;
27187;SDS011;14708;50.872;5.306;2023-07-09T20:15:38;5.72;;;4.03;;
27187;SDS011;14708;50.872;5.306;2023-07-09T20:18:05;8.32;;;4.00;;
27187;SDS011;14708;50.872;5.306;2023-07-09T20:20:38;6.90;;;3.90;;
27187;SDS011;14708;50.872;5.306;2023-07-09T20:23:04;4.80;;;3.88;;
27187;SDS011;14708;50.872;5.306;2023-07-09T20:25:29;8.07;;;4.38;;
27187;SDS011;14708;50.872;5.306;2023-07-09T20:27:55;7.13;;;4.10;;
27187;SDS011;14708;50.872;5.306;2023-07-09T20:30:20;10.10;;;4.00;;
27187;SDS011;14708;50.872;5.306;2023-07-09T20:32:47;6.57;;;4.20;;
27187;SDS011;14708;50.872;5.306;2023-07-09T20:35:16;6.70;;;3.93;;
27187;SDS011;14708;50.872;5.306;2023-07-09T20:37:43;6.43;;;3.83;;
27187;SDS011;14708;50.872;5.306;2023-07-09T20:40:13;7.93;;;4.22;;
27187;SDS011;14708;50.872;5.306;2023-07-09T20:42:40;5.10;;;3.50;;
27187;SDS011;14708;50.872;5.306;2023-07-09T20:45:16;4.50;;;3.85;;
27187;SDS011;14708;50.872;5.306;2023-07-09T20:47:48;6.20;;;3.97;;
27187;SDS011;14708;50.872;5.306;2023-07-09T20:50:15;5.40;;;3.80;;
27187;SDS011;14708;50.872;5.306;2023-07-09T20:52:43;4.65;;;3.67;;
27187;SDS011;14708;50.872;5.306;2023-07-09T20:55:09;6.03;;;4.22;;
27187;SDS011;14708;50.872;5.306;2023-07-09T21:00:03;5.68;;;4.10;;
27187;SDS011;14708;50.872;5.306;2023-07-09T21:02:44;5.68;;;4.18;;
27187;SDS011;14708;50.872;5.306;2023-07-09T21:05:11;6.20;;;4.10;;
27187;SDS011;14708;50.872;5.306;2023-07-09T21:07:38;6.45;;;4.20;;
27187;SDS011;14708;50.872;5.306;2023-07-09T21:12:41;4.70;;;4.18;;
27187;SDS011;14708;50.872;5.306;2023-07-09T21:15:07;5.63;;;3.72;;
27187;SDS011;14708;50.872;5.306;2023-07-09T21:17:32;4.50;;;3.45;;
27187;SDS011;14708;50.872;5.306;2023-07-09T21:19:58;5.72;;;3.97;;
27187;SDS011;14708;50.872;5.306;2023-07-09T21:22:24;7.53;;;4.30;;
27187;SDS011;14708;50.872;5.306;2023-07-09T21:24:54;5.35;;;3.85;;
27187;SDS011;14708;50.872;5.306;2023-07-09T21:27:27;5.10;;;3.95;;
27187;SDS011;14708;50.872;5.306;2023-07-09T21:29:53;4.88;;;3.70;;
27187;SDS011;14708;50.872;5.306;2023-07-09T21:32:22;8.48;;;4.00;;
27187;SDS011;14708;50.872;5.306;2023-07-09T21:34:53;4.95;;;3.75;;
27187;SDS011;14708;50.872;5.306;2023-07-09T21:37:21;4.88;;;3.60;;
27187;SDS011;14708;50.872;5.306;2023-07-09T21:39:48;6.00;;;4.30;;
27187;SDS011;14708;50.872;5.306;2023-07-09T21:42:14;5.70;;;3.97;;
27187;SDS011;14708;50.872;5.306;2023-07-09T21:44:40;4.53;;;3.42;;
27187;SDS011;14708;50.872;5.306;2023-07-09T21:47:07;4.93;;;3.88;;
27187;SDS011;14708;50.872;5.306;2023-07-09T21:49:40;5.75;;;3.63;;
27187;SDS011;14708;50.872;5.306;2023-07-09T21:52:14;5.57;;;4.10;;
27187;SDS011;14708;50.872;5.306;2023-07-09T21:54:44;4.63;;;3.35;;
27187;SDS011;14708;50.872;5.306;2023-07-09T21:57:14;6.72;;;4.07;;
27187;SDS011;14708;50.872;5.306;2023-07-09T21:59:41;6.28;;;3.95;;
27187;SDS011;14708;50.872;5.306;2023-07-09T22:02:12;4.97;;;4.13;;
27187;SDS011;14708;50.872;5.306;2023-07-09T22:04:47;4.03;;;3.30;;
27187;SDS011;14708;50.872;5.306;2023-07-09T22:07:16;4.32;;;3.42;;
27187;SDS011;14708;50.872;5.306;2023-07-09T22:09:46;4.47;;;3.60;;
27187;SDS011;14708;50.872;5.306;2023-07-09T22:12:12;6.07;;;4.03;;
27187;SDS011;14708;50.872;5.306;2023-07-09T22:14:44;5.95;;;4.05;;
27187;SDS011;14708;50.872;5.306;2023-07-09T22:17:10;5.35;;;4.32;;
27187;SDS011;14708;50.872;5.306;2023-07-09T22:19:36;5.15;;;3.95;;
27187;SDS011;14708;50.872;5.306;2023-07-09T22:22:04;6.90;;;4.35;;
27187;SDS011;14708;50.872;5.306;2023-07-09T22:24:34;4.72;;;3.58;;
27187;SDS011;14708;50.872;5.306;2023-07-09T22:27:00;4.93;;;3.53;;
27187;SDS011;14708;50.872;5.306;2023-07-09T22:29:26;4.32;;;3.88;;
27187;SDS011;14708;50.872;5.306;2023-07-09T22:31:51;4.90;;;4.15;;
27187;SDS011;14708;50.872;5.306;2023-07-09T22:34:19;6.20;;;4.22;;
27187;SDS011;14708;50.872;5.306;2023-07-09T22:36:47;7.15;;;4.90;;
27187;SDS011;14708;50.872;5.306;2023-07-09T22:39:14;3.92;;;3.58;;
27187;SDS011;14708;50.872;5.306;2023-07-09T22:41:41;4.72;;;3.67;;
27187;SDS011;14708;50.872;5.306;2023-07-09T22:44:08;4.57;;;3.75;;
27187;SDS011;14708;50.872;5.306;2023-07-09T22:46:35;5.10;;;4.00;;
27187;SDS011;14708;50.872;5.306;2023-07-09T22:49:01;4.28;;;3.55;;
27187;SDS011;14708;50.872;5.306;2023-07-09T22:51:27;6.32;;;4.03;;
27187;SDS011;14708;50.872;5.306;2023-07-09T22:53:57;3.95;;;3.55;;